createdAt,value
2023-03-06T00:02:40.598Z,99997.78
2023-03-06T00:05:43.537Z,100001.75
2023-03-06T00:08:46.146Z,100000.59
2023-03-06T00:11:49.102Z,100005.19
2023-03-06T00:14:51.701Z,100008.88
2023-03-06T00:17:55.858Z,99998.63
2023-03-06T00:20:58.505Z,100004.00
2023-03-06T00:24:01.361Z,99994.13
2023-03-06T00:27:04.095Z,99998.06
2023-03-06T00:30:14.232Z,99990.53
2023-03-06T00:33:17.916Z,99989.47
2023-03-06T00:36:20.907Z,99984.97
2023-03-06T00:39:23.641Z,99982.72
2023-03-06T00:42:27.191Z,99985.03
2023-03-06T00:45:29.985Z,99947.44
2023-03-06T00:48:34.033Z,99978.25
2023-03-06T00:51:37.130Z,99975.31
2023-03-06T00:54:40.338Z,99960.91
2023-03-06T00:57:42.999Z,99978.41
2023-03-06T01:00:46.310Z,99978.81
2023-03-06T01:03:49.028Z,99969.09
2023-03-06T01:06:52.042Z,99961.25
2023-03-06T01:09:54.789Z,99972.53
2023-03-06T01:12:57.766Z,99971.22
2023-03-06T01:16:09.872Z,99963.87
2023-03-06T01:19:12.728Z,99971.13
2023-03-06T01:22:15.378Z,99964.31
2023-03-06T01:25:18.290Z,99961.50
2023-03-06T01:28:20.894Z,99958.00
2023-03-06T01:31:25.053Z,99940.63
2023-03-06T01:34:27.860Z,99949.19
2023-03-06T01:37:30.865Z,99939.91
2023-03-06T01:40:36.208Z,99935.94
2023-03-06T01:43:42.460Z,99941.19
2023-03-06T01:46:46.278Z,99942.84
2023-03-06T01:49:49.517Z,99939.16
2023-03-06T01:52:56.440Z,99928.72
2023-03-06T01:55:59.485Z,99934.69
2023-03-06T01:59:02.743Z,99922.13
2023-03-06T02:02:08.507Z,99916.56
2023-03-06T02:05:12.205Z,99920.88
2023-03-06T02:08:19.148Z,99917.19
2023-03-06T02:11:24.962Z,99912.97
2023-03-06T02:14:28.059Z,99904.31
2023-03-06T02:17:30.997Z,99888.59
2023-03-06T02:20:46.043Z,99909.56
2023-03-06T02:23:51.525Z,99920.06
2023-03-06T02:26:55.805Z,99912.34
2023-03-06T02:29:58.974Z,99906.38
2023-03-06T02:33:03.185Z,99906.53
2023-03-06T02:36:07.737Z,99909.25
2023-03-06T02:39:11.291Z,99906.66
2023-03-06T02:42:25.999Z,99907.09
2023-03-06T02:45:50.196Z,99906.97
2023-03-06T02:48:53.295Z,99907.03
2023-03-06T02:51:57.530Z,99918.06
2023-03-06T02:55:00.438Z,99912.47
2023-03-06T02:58:03.655Z,99917.19
2023-03-06T03:01:07.566Z,99890.22
2023-03-06T03:04:10.570Z,99915.38
2023-03-06T03:07:14.882Z,99920.25
2023-03-06T03:10:18.243Z,99920.06
2023-03-06T03:13:21.374Z,99916.22
2023-03-06T03:16:24.465Z,99916.81
2023-03-06T03:19:27.339Z,99922.16
2023-03-06T03:22:30.706Z,99921.28
2023-03-06T03:25:33.605Z,99923.22
2023-03-06T03:28:36.568Z,99895.50
2023-03-06T03:31:40.323Z,99890.47
2023-03-06T03:34:43.110Z,99899.75
2023-03-06T03:37:46.105Z,99886.28
2023-03-06T03:40:49.741Z,99880.28
2023-03-06T03:43:53.187Z,99878.16
2023-03-06T03:46:56.115Z,99871.63
2023-03-06T03:49:59.930Z,99882.78
2023-03-06T03:53:02.878Z,99871.28
2023-03-06T03:56:06.236Z,99874.19
2023-03-06T03:59:09.756Z,99872.66
2023-03-06T04:02:13.320Z,99879.75
2023-03-06T04:05:17.212Z,99879.84
2023-03-06T04:08:22.047Z,99881.97
2023-03-06T04:11:25.182Z,99876.28
2023-03-06T04:14:28.966Z,99875.84
2023-03-06T04:17:34.232Z,99875.03
2023-03-06T04:20:37.602Z,99863.37
2023-03-06T04:23:40.659Z,99870.00
2023-03-06T04:26:43.513Z,99867.41
2023-03-06T04:29:46.777Z,99866.16
2023-03-06T04:32:49.547Z,99865.06
2023-03-06T04:35:53.014Z,99856.19
2023-03-06T04:38:56.473Z,99864.16
2023-03-06T04:41:59.597Z,99846.97
2023-03-06T04:45:02.371Z,99854.09
2023-03-06T04:48:06.207Z,99859.69
2023-03-06T04:51:12.230Z,99858.75
2023-03-06T04:54:15.104Z,99860.50
2023-03-06T04:57:17.786Z,99848.94
2023-03-06T05:00:23.275Z,99850.69
2023-03-06T05:03:26.353Z,99845.91
2023-03-06T05:06:29.320Z,99838.78
2023-03-06T05:09:34.161Z,99839.88
2023-03-06T05:12:37.929Z,99844.94
2023-03-06T05:15:41.231Z,99841.94
2023-03-06T05:18:44.532Z,99840.84
2023-03-06T05:21:47.213Z,99852.28
2023-03-06T05:24:50.241Z,99859.06
2023-03-06T05:27:52.897Z,99845.75
2023-03-06T05:30:56.339Z,99853.19
2023-03-06T05:33:59.597Z,99848.78
2023-03-06T05:37:02.438Z,99860.03
2023-03-06T05:40:06.868Z,99863.00
2023-03-06T05:43:11.865Z,99860.00
2023-03-06T05:46:14.512Z,99833.97
2023-03-06T05:49:18.097Z,99845.19
2023-03-06T05:52:21.009Z,99854.25
2023-03-06T05:55:24.479Z,99851.38
2023-03-06T05:58:28.289Z,99839.00
2023-03-06T06:01:33.671Z,99822.38
2023-03-06T06:04:36.736Z,99846.88
2023-03-06T06:07:39.723Z,99850.38
2023-03-06T06:10:43.064Z,99844.56
2023-03-06T06:13:47.885Z,99823.13
2023-03-06T06:16:51.250Z,99830.16
2023-03-06T06:19:53.924Z,99823.16
2023-03-06T06:22:56.985Z,99814.56
2023-03-06T06:26:05.317Z,99817.31
2023-03-06T06:29:09.303Z,99816.94
2023-03-06T06:32:12.130Z,99814.09
2023-03-06T06:35:15.273Z,99815.84
2023-03-06T06:38:18.447Z,99820.97
2023-03-06T06:44:44.536Z,99810.44
2023-03-06T06:47:49.892Z,99825.84
2023-03-06T06:50:57.023Z,99837.97
2023-03-06T06:54:01.016Z,99838.25
2023-03-06T06:57:03.658Z,99836.59
2023-03-06T07:00:09.860Z,99843.09
2023-03-06T07:03:13.049Z,99849.22
2023-03-06T07:06:16.974Z,99851.22
2023-03-06T07:09:20.239Z,99845.44
2023-03-06T07:12:23.474Z,99842.56
2023-03-06T07:15:27.210Z,99830.53
2023-03-06T07:18:30.315Z,99833.75
2023-03-06T07:21:33.175Z,99830.44
2023-03-06T07:24:36.080Z,99836.72
2023-03-06T07:27:38.769Z,99842.06
2023-03-06T07:30:41.979Z,99842.81
2023-03-06T07:33:44.788Z,99853.69
2023-03-06T07:36:48.175Z,99850.00
2023-03-06T07:39:50.784Z,99839.38
2023-03-06T07:43:12.938Z,99841.00
2023-03-06T07:46:23.071Z,99843.84
2023-03-06T07:49:26.356Z,99840.75
2023-03-06T07:52:29.655Z,99842.34
2023-03-06T07:55:32.634Z,99859.97
2023-03-06T07:58:36.743Z,99865.97
2023-03-06T08:01:40.371Z,99861.50
2023-03-06T08:04:43.754Z,99863.94
2023-03-06T08:07:46.419Z,99862.91
2023-03-06T08:10:49.377Z,99869.69
2023-03-06T08:13:53.063Z,99872.09
2023-03-06T08:16:56.563Z,99873.25
2023-03-06T08:20:05.904Z,99876.41
2023-03-06T08:23:09.050Z,99870.34
2023-03-06T08:26:18.896Z,99865.34
2023-03-06T08:29:21.816Z,99868.19
2023-03-06T08:32:25.198Z,99868.84
2023-03-06T08:35:28.293Z,99866.28
2023-03-06T08:38:31.042Z,99872.37
2023-03-06T08:41:37.908Z,99870.63
2023-03-06T08:44:40.554Z,99852.44
2023-03-06T08:47:43.558Z,99873.22
2023-03-06T08:50:46.245Z,99867.03
2023-03-06T08:53:50.385Z,99868.06
2023-03-06T08:56:53.922Z,99866.25
2023-03-06T08:59:56.984Z,99860.09
2023-03-06T09:02:59.818Z,99860.72
2023-03-06T09:06:02.764Z,99854.66
2023-03-06T09:09:06.446Z,99859.78
2023-03-06T09:12:09.432Z,99858.91
2023-03-06T09:15:13.033Z,99856.31
2023-03-06T09:18:16.065Z,99845.94
2023-03-06T09:21:20.738Z,99852.22
2023-03-06T09:24:23.660Z,99850.31
2023-03-06T09:27:28.311Z,99844.28
2023-03-06T09:30:31.298Z,99848.84
2023-03-06T09:33:34.622Z,99849.81
2023-03-06T09:36:53.382Z,99847.31
2023-03-06T09:39:57.958Z,99849.72
2023-03-06T09:43:00.994Z,99841.63
2023-03-06T09:46:32.530Z,99834.56
2023-03-06T09:49:57.584Z,99809.03
2023-03-06T09:53:38.258Z,99818.37
2023-03-06T09:56:48.228Z,99805.88
2023-03-06T09:59:55.564Z,99802.53
2023-03-06T10:03:01.422Z,99795.37
2023-03-06T10:06:30.202Z,99790.41
2023-03-06T10:09:48.234Z,99794.31
2023-03-06T10:13:00.674Z,99784.16
2023-03-06T10:16:22.587Z,99781.78
2023-03-06T10:19:33.138Z,99782.59
2023-03-06T10:22:46.070Z,99783.41
2023-03-06T10:26:20.401Z,99776.72
2023-03-06T10:30:03.658Z,99777.94
2023-03-06T10:33:16.371Z,99765.41
2023-03-06T10:36:21.650Z,99758.31
2023-03-06T10:39:24.751Z,99741.81
2023-03-06T10:42:28.935Z,99739.53
2023-03-06T10:45:47.236Z,99743.06
2023-03-06T10:48:58.571Z,99734.78
2023-03-06T10:52:19.170Z,99722.66
2023-03-06T10:55:26.979Z,99714.75
2023-03-06T10:58:33.563Z,99713.97
2023-03-06T11:01:57.272Z,99718.22
2023-03-06T11:05:01.570Z,99707.72
2023-03-06T11:08:04.778Z,99699.09
2023-03-06T11:11:09.765Z,99696.69
2023-03-06T11:14:18.321Z,99685.28
2023-03-06T11:17:32.252Z,99686.16
2023-03-06T11:20:51.035Z,99672.28
2023-03-06T11:24:00.543Z,99667.59
2023-03-06T11:27:34.439Z,99675.56
2023-03-06T11:30:48.247Z,99667.75
2023-03-06T11:34:16.472Z,99662.25
2023-03-06T11:37:51.480Z,99661.06
2023-03-06T11:40:59.272Z,99652.03
2023-03-06T11:44:26.164Z,99641.31
2023-03-06T11:47:44.309Z,99634.19
2023-03-06T11:50:55.491Z,99634.16
2023-03-06T11:54:00.531Z,99619.31
2023-03-06T11:57:15.674Z,99625.06
2023-03-06T12:00:53.229Z,99616.59
2023-03-06T12:04:02.615Z,99608.72
2023-03-06T12:07:27.096Z,99604.31
2023-03-06T12:10:37.400Z,99605.78
2023-03-06T12:13:39.974Z,99601.59
2023-03-06T12:16:53.233Z,99600.19
2023-03-06T12:19:59.474Z,99599.63
2023-03-06T12:23:22.571Z,99591.38
2023-03-06T12:26:53.148Z,99590.88
2023-03-06T12:30:11.403Z,99569.69
2023-03-06T12:33:24.814Z,99577.31
2023-03-06T12:36:44.291Z,99567.56
2023-03-06T12:40:07.036Z,99562.31
2023-03-06T12:43:34.203Z,99560.16
2023-03-06T12:46:45.119Z,99548.09
2023-03-06T12:49:55.976Z,99544.22
2023-03-06T12:53:03.245Z,99538.94
2023-03-06T12:56:07.420Z,99536.06
2023-03-06T12:59:47.195Z,99535.37
2023-03-06T13:02:52.972Z,99527.84
2023-03-06T13:06:24.801Z,99528.50
2023-03-06T13:09:55.398Z,99522.03
2023-03-06T13:13:44.993Z,99518.16
2023-03-06T13:16:48.257Z,99514.53
2023-03-06T13:20:15.710Z,99513.00
2023-03-06T13:23:33.440Z,99480.25
2023-03-06T13:26:36.257Z,99499.22
2023-03-06T13:29:39.162Z,99503.38
2023-03-06T13:32:41.925Z,99499.47
2023-03-06T13:35:53.000Z,99505.06
2023-03-06T13:39:04.930Z,99509.91
2023-03-06T13:42:27.346Z,99506.16
2023-03-06T13:45:33.354Z,99506.25
2023-03-06T13:48:44.735Z,99501.94
2023-03-06T13:51:53.960Z,99496.91
2023-03-06T13:55:11.363Z,99488.28
2023-03-06T13:58:29.267Z,99476.09
2023-03-06T14:01:48.552Z,99483.19
2023-03-06T14:05:15.330Z,99453.38
2023-03-06T14:08:24.746Z,99463.56
2023-03-06T14:11:30.005Z,99455.31
2023-03-06T14:14:42.166Z,99454.78
2023-03-06T14:17:54.247Z,99458.72
2023-03-06T14:21:14.247Z,99442.81
2023-03-06T14:24:20.313Z,99462.81
2023-03-06T14:27:39.316Z,99456.62
2023-03-06T14:30:50.947Z,99432.41
2023-03-06T14:33:56.529Z,99455.09
2023-03-06T14:37:07.675Z,99456.31
2023-03-06T14:40:11.543Z,99451.63
2023-03-06T14:43:24.644Z,99462.19
2023-03-06T14:46:27.510Z,99460.22
2023-03-06T14:49:30.451Z,99442.59
2023-03-06T14:52:33.598Z,99455.06
2023-03-06T14:55:36.775Z,99463.62
2023-03-06T14:58:55.897Z,99457.38
2023-03-06T15:02:07.704Z,99487.94
2023-03-06T15:05:22.816Z,99459.69
2023-03-06T15:08:30.565Z,99490.56
2023-03-06T15:12:02.278Z,99492.44
2023-03-06T15:15:08.456Z,99497.09
2023-03-06T15:18:48.764Z,99501.78
2023-03-06T15:21:52.629Z,99508.34
2023-03-06T15:25:21.221Z,99511.41
2023-03-06T15:28:30.336Z,99509.34
2023-03-06T15:31:33.197Z,99510.03
2023-03-06T15:34:36.205Z,99501.62
2023-03-06T15:37:38.758Z,99495.78
2023-03-06T15:40:55.104Z,99501.31
2023-03-06T15:43:59.121Z,99476.13
2023-03-06T15:47:09.082Z,99474.97
2023-03-06T15:50:22.517Z,99465.94
2023-03-06T15:53:25.708Z,99469.06
2023-03-06T15:56:31.893Z,99456.44
2023-03-06T15:59:43.161Z,99443.09
2023-03-06T16:02:45.781Z,99457.81
2023-03-06T16:05:48.730Z,99461.16
2023-03-06T16:08:52.810Z,99440.41
2023-03-06T16:11:56.048Z,99456.12
2023-03-06T16:15:01.179Z,99452.34
2023-03-06T16:18:06.750Z,99450.81
2023-03-06T16:21:09.393Z,99455.47
2023-03-06T16:24:15.963Z,99449.88
2023-03-06T16:27:19.876Z,99456.34
2023-03-06T16:30:26.753Z,99457.84
2023-03-06T16:33:29.699Z,99464.59
2023-03-06T16:36:32.738Z,99450.13
2023-03-06T16:39:35.446Z,99464.03
2023-03-06T16:42:38.582Z,99472.16
2023-03-06T16:45:42.347Z,99472.25
2023-03-06T16:48:47.200Z,99482.00
2023-03-06T16:51:51.509Z,99474.22
2023-03-06T16:54:54.536Z,99483.13
2023-03-06T16:57:57.438Z,99483.97
2023-03-06T17:01:00.682Z,99471.38
2023-03-06T17:04:03.698Z,99470.62
2023-03-06T17:07:06.857Z,99472.25
2023-03-06T17:10:12.896Z,99481.00
2023-03-06T17:13:15.996Z,99483.75
2023-03-06T17:16:18.714Z,99477.50
2023-03-06T17:19:22.117Z,99489.13
2023-03-06T17:22:25.091Z,99487.72
2023-03-06T17:25:28.527Z,99489.66
2023-03-06T17:28:31.475Z,99468.75
2023-03-06T17:31:34.450Z,99468.37
2023-03-06T17:34:37.347Z,99473.31
2023-03-06T17:37:40.682Z,99469.72
2023-03-06T17:40:43.441Z,99463.59
2023-03-06T17:43:46.626Z,99459.63
2023-03-06T17:46:50.174Z,99459.09
2023-03-06T17:49:53.333Z,99464.94
2023-03-06T17:52:55.942Z,99447.47
2023-03-06T17:55:59.372Z,99449.31
2023-03-06T17:59:02.042Z,99452.56
2023-03-06T18:02:06.543Z,99454.44
2023-03-06T18:05:09.908Z,99455.59
2023-03-06T18:08:13.272Z,99456.72
2023-03-06T18:11:16.824Z,99463.28
2023-03-06T18:14:19.646Z,99460.13
2023-03-06T18:17:25.389Z,99469.19
2023-03-06T18:20:29.713Z,99463.62
2023-03-06T18:23:33.605Z,99464.75
2023-03-06T18:26:42.322Z,99458.97
2023-03-06T18:29:45.271Z,99454.31
2023-03-06T18:32:48.070Z,99452.34
2023-03-06T18:35:51.318Z,99460.09
2023-03-06T18:38:54.678Z,99452.59
2023-03-06T18:41:57.907Z,99449.19
2023-03-06T18:45:00.627Z,99440.56
2023-03-06T18:48:05.844Z,99432.00
2023-03-06T18:51:10.760Z,99419.91
2023-03-06T18:54:13.867Z,99424.97
2023-03-06T18:57:16.796Z,99431.41
2023-03-06T19:00:20.625Z,99417.47
2023-03-06T19:03:23.378Z,99416.72
2023-03-06T19:06:27.921Z,99427.56
2023-03-06T19:09:30.782Z,99431.75
2023-03-06T19:12:35.585Z,99437.94
2023-03-06T19:15:48.667Z,99444.06
2023-03-06T19:18:53.573Z,99428.50
2023-03-06T19:22:00.360Z,99455.00
2023-03-06T19:25:03.961Z,99462.28
2023-03-06T19:28:07.033Z,99474.34
2023-03-06T19:31:19.597Z,99470.41
2023-03-06T19:34:22.365Z,99476.72
2023-03-06T19:37:26.158Z,99472.94
2023-03-06T19:40:31.999Z,99465.06
2023-03-06T19:43:35.400Z,99465.09
2023-03-06T19:46:40.730Z,99464.09
2023-03-06T19:49:44.043Z,99463.22
2023-03-06T19:52:46.980Z,99472.69
2023-03-06T19:55:50.183Z,99477.78
2023-03-06T19:58:53.483Z,99489.47
2023-03-06T20:01:59.058Z,99485.09
2023-03-06T20:05:02.575Z,99484.63
2023-03-06T20:08:05.359Z,99478.06
2023-03-06T20:11:20.180Z,99489.34
2023-03-06T20:14:22.795Z,99480.31
2023-03-06T20:17:26.269Z,99487.22
2023-03-06T20:20:29.813Z,99480.56
2023-03-06T20:23:33.989Z,99489.16
2023-03-06T20:26:38.153Z,99480.72
2023-03-06T20:29:44.783Z,99472.34
2023-03-06T20:32:48.201Z,99459.44
2023-03-06T20:35:51.449Z,99461.06
2023-03-06T20:38:56.105Z,99436.50
2023-03-06T20:42:00.166Z,99444.72
2023-03-06T20:45:03.087Z,99431.34
2023-03-06T20:48:06.391Z,99433.00
2023-03-06T20:51:17.030Z,99428.03
2023-03-06T20:54:20.456Z,99427.22
2023-03-06T20:57:23.503Z,99413.41
2023-03-06T21:00:26.744Z,99422.84
2023-03-06T21:03:29.860Z,99430.22
2023-03-06T21:06:33.483Z,99443.44
2023-03-06T21:09:37.899Z,99431.47
2023-03-06T21:12:41.125Z,99432.53
2023-03-06T21:15:44.874Z,99432.44
2023-03-06T21:18:48.512Z,99446.47
2023-03-06T21:21:51.518Z,99444.84
2023-03-06T21:24:54.373Z,99444.63
2023-03-06T21:27:57.289Z,99448.03
2023-03-06T21:31:01.491Z,99430.03
2023-03-06T21:34:05.526Z,99452.22
2023-03-06T21:37:08.614Z,99450.44
2023-03-06T21:40:14.274Z,99447.34
2023-03-06T21:43:17.722Z,99450.50
2023-03-06T21:46:20.371Z,99443.78
2023-03-06T21:49:26.140Z,99451.13
2023-03-06T21:52:29.830Z,99443.81
2023-03-06T21:55:32.757Z,99450.41
2023-03-06T21:58:35.865Z,99455.84
2023-03-06T22:01:39.510Z,99462.34
2023-03-06T22:04:42.510Z,99471.50
2023-03-06T22:07:45.488Z,99477.63
2023-03-06T22:10:49.194Z,99483.63
2023-03-06T22:13:55.763Z,99477.72
2023-03-06T22:16:58.650Z,99481.59
2023-03-06T22:20:01.400Z,99490.25
2023-03-06T22:23:04.363Z,99493.81
2023-03-06T22:26:12.811Z,99489.66
2023-03-06T22:29:15.924Z,99494.19
2023-03-06T22:32:18.746Z,99490.94
2023-03-06T22:35:21.742Z,99490.50
2023-03-06T22:38:24.471Z,99502.47
2023-03-06T22:41:28.205Z,99480.75
2023-03-06T22:44:31.068Z,99484.59
2023-03-06T22:47:36.646Z,99468.41
2023-03-06T22:50:39.335Z,99469.75
2023-03-06T22:53:42.688Z,99483.66
2023-03-06T22:56:45.286Z,99470.75
2023-03-06T22:59:48.281Z,99481.25
2023-03-06T23:02:50.944Z,99481.72
2023-03-06T23:05:54.938Z,99467.56
2023-03-06T23:09:00.304Z,99470.22
2023-03-06T23:12:02.957Z,99470.69
2023-03-06T23:15:24.305Z,99477.84
2023-03-06T23:18:45.151Z,99478.00
2023-03-06T23:22:05.969Z,99473.97
2023-03-06T23:25:26.842Z,99474.22
2023-03-06T23:28:30.177Z,99485.56
2023-03-06T23:31:33.283Z,99482.44
2023-03-06T23:34:36.241Z,99483.59
2023-03-06T23:37:38.841Z,99482.37
2023-03-06T23:40:41.799Z,99484.13
2023-03-06T23:43:46.424Z,99481.97
2023-03-06T23:46:49.379Z,99484.13
2023-03-06T23:49:52.086Z,99488.47
2023-03-06T23:52:55.657Z,99484.91
2023-03-06T23:55:58.518Z,99487.56
2023-03-06T23:59:01.403Z,99500.88
